createdAt,value
2019-01-09T00:01:23.906Z,99373.89
2019-01-09T00:03:57.363Z,99370.88
2019-01-09T00:06:30.755Z,99359.25
2019-01-09T00:09:06.721Z,99359.22
2019-01-09T00:11:39.370Z,99356.75
2019-01-09T00:14:12.375Z,99361.66
2019-01-09T00:16:45.867Z,99368.87
2019-01-09T00:19:19.543Z,99371.02
2019-01-09T00:21:52.571Z,99374.80
2019-01-09T00:24:26.384Z,99382.60
2019-01-09T00:26:59.561Z,99370.20
2019-01-09T00:29:32.949Z,99386.39
2019-01-09T00:32:05.950Z,99396.20
2019-01-09T00:34:39.406Z,99388.76
2019-01-09T00:37:13.291Z,99394.21
2019-01-09T00:39:47.150Z,99397.61
2019-01-09T00:42:20.637Z,99406.68
2019-01-09T00:44:53.851Z,99404.21
2019-01-09T00:47:27.319Z,99413.55
2019-01-09T00:50:00.786Z,99404.81
2019-01-09T00:52:34.191Z,99398.78
2019-01-09T00:55:07.506Z,99401.44
2019-01-09T00:57:41.456Z,99407.30
2019-01-09T01:00:16.392Z,99405.69
2019-01-09T01:03:08.626Z,99395.47
2019-01-09T01:06:41.932Z,99407.84
2019-01-09T01:09:59.683Z,99409.19
2019-01-09T01:13:08.918Z,99404.47
2019-01-09T01:16:18.789Z,99410.31
2019-01-09T01:19:25.232Z,99408.28
2019-01-09T01:22:31.715Z,99414.41
2019-01-09T01:26:13.386Z,99413.27
2019-01-09T01:29:27.831Z,99418.17
2019-01-09T01:32:30.745Z,99417.36
2019-01-09T01:35:54.487Z,99413.33
2019-01-09T01:38:56.287Z,99413.55
2019-01-09T01:42:13.091Z,99418.76
2019-01-09T01:45:02.881Z,99424.34
2019-01-09T01:48:16.943Z,99424.06
2019-01-09T01:51:18.932Z,99421.87
2019-01-09T01:54:23.423Z,99425.34
2019-01-09T01:57:36.662Z,99426.38
2019-01-09T02:00:54.014Z,99433.74
2019-01-09T02:04:03.632Z,99439.48
2019-01-09T02:07:25.073Z,99445.30
2019-01-09T02:10:55.087Z,99456.02
2019-01-09T02:14:12.093Z,99460.31
2019-01-09T02:17:09.288Z,99460.37
2019-01-09T02:20:08.599Z,99465.20
2019-01-09T02:23:26.189Z,99467.97
2019-01-09T02:26:13.747Z,99485.16
2019-01-09T02:29:24.550Z,99480.51
2019-01-09T02:32:34.956Z,99482.39
2019-01-09T02:35:08.011Z,99492.70
2019-01-09T02:37:41.566Z,99490.89
2019-01-09T02:40:15.166Z,99498.11
2019-01-09T02:42:48.997Z,99495.17
2019-01-09T02:45:24.221Z,99497.20
2019-01-09T02:47:58.115Z,99500.62
2019-01-09T02:50:31.516Z,99503.13
2019-01-09T02:53:05.209Z,99495.83
2019-01-09T02:55:39.502Z,99496.88
2019-01-09T02:58:13.267Z,99495.94
2019-01-09T03:00:46.208Z,99496.26
2019-01-09T03:03:19.618Z,99502.14
2019-01-09T03:05:52.226Z,99504.97
2019-01-09T03:08:25.945Z,99506.05
2019-01-09T03:10:59.662Z,99511.48
2019-01-09T03:13:32.950Z,99511.73
2019-01-09T03:16:06.605Z,99518.20
2019-01-09T03:18:39.794Z,99525.97
2019-01-09T03:21:13.132Z,99527.78
2019-01-09T03:23:46.726Z,99521.76
2019-01-09T03:26:20.471Z,99526.48
2019-01-09T03:28:53.712Z,99525.06
2019-01-09T03:31:27.473Z,99519.33
2019-01-09T03:34:00.102Z,99518.24
2019-01-09T03:36:33.778Z,99522.52
2019-01-09T03:39:07.110Z,99527.56
2019-01-09T03:41:40.083Z,99517.23
2019-01-09T03:44:13.357Z,99519.19
2019-01-09T03:46:46.764Z,99521.53
2019-01-09T03:49:20.041Z,99521.75
2019-01-09T03:51:53.946Z,99531.44
2019-01-09T03:54:26.565Z,99528.39
2019-01-09T03:56:59.589Z,99522.95
2019-01-09T03:59:32.945Z,99528.89
2019-01-09T04:02:06.089Z,99522.18
2019-01-09T04:04:39.420Z,99527.80
2019-01-09T04:07:13.049Z,99519.54
2019-01-09T04:09:46.422Z,99520.41
2019-01-09T04:12:20.284Z,99517.47
2019-01-09T04:14:53.323Z,99527.47
2019-01-09T04:17:26.415Z,99521.55
2019-01-09T04:20:02.168Z,99517.79
2019-01-09T04:22:35.252Z,99527.61
2019-01-09T04:25:08.764Z,99525.51
2019-01-09T04:27:42.160Z,99518.27
2019-01-09T04:30:15.442Z,99525.72
2019-01-09T04:32:48.093Z,99528.36
2019-01-09T04:35:21.603Z,99531.73
2019-01-09T04:37:56.346Z,99533.44
2019-01-09T04:40:28.926Z,99535.33
2019-01-09T04:43:04.067Z,99536.42
2019-01-09T04:45:37.864Z,99536.92
2019-01-09T04:48:11.260Z,99546.61
2019-01-09T04:50:44.238Z,99536.05
2019-01-09T04:53:17.581Z,99541.20
2019-01-09T04:55:50.984Z,99543.42
2019-01-09T04:58:24.023Z,99537.51
2019-01-09T05:00:56.705Z,99530.83
2019-01-09T05:03:30.126Z,99533.63
2019-01-09T05:06:03.560Z,99549.30
2019-01-09T05:08:36.698Z,99542.29
2019-01-09T05:11:09.824Z,99540.77
2019-01-09T05:13:43.293Z,99538.02
2019-01-09T05:16:16.682Z,99547.67
2019-01-09T05:18:50.175Z,99549.09
2019-01-09T05:21:24.092Z,99544.57
2019-01-09T05:23:57.076Z,99552.00
2019-01-09T05:26:30.156Z,99545.30
2019-01-09T05:29:03.594Z,99547.50
2019-01-09T05:31:36.244Z,99554.14
2019-01-09T05:34:09.614Z,99556.28
2019-01-09T05:36:42.527Z,99558.23
2019-01-09T05:39:16.380Z,99557.67
2019-01-09T05:41:50.279Z,99561.38
2019-01-09T05:44:23.642Z,99566.27
2019-01-09T05:46:57.048Z,99569.90
2019-01-09T05:49:30.425Z,99571.64
2019-01-09T05:52:03.544Z,99580.26
2019-01-09T05:54:38.236Z,99578.45
2019-01-09T05:57:13.401Z,99587.45
2019-01-09T05:59:46.793Z,99573.97
2019-01-09T06:02:20.497Z,99570.73
2019-01-09T06:04:53.173Z,99572.14
2019-01-09T06:07:26.434Z,99575.37
2019-01-09T06:09:59.471Z,99573.64
2019-01-09T06:12:32.489Z,99575.05
2019-01-09T06:15:05.841Z,99576.58
2019-01-09T06:17:39.380Z,99580.27
2019-01-09T06:20:12.773Z,99587.14
2019-01-09T06:22:46.076Z,99581.47
2019-01-09T06:25:19.521Z,99587.53
2019-01-09T06:27:53.042Z,99590.30
2019-01-09T06:30:26.631Z,99587.63
2019-01-09T06:32:59.331Z,99595.28
2019-01-09T06:35:32.869Z,99598.35
2019-01-09T06:38:06.827Z,99597.16
2019-01-09T06:40:40.651Z,99600.16
2019-01-09T06:43:16.453Z,99595.25
2019-01-09T06:45:50.215Z,99602.03
2019-01-09T06:48:23.823Z,99609.22
2019-01-09T06:50:57.109Z,99608.51
2019-01-09T06:53:30.540Z,99606.05
2019-01-09T06:56:03.906Z,99620.09
2019-01-09T06:58:37.546Z,99624.34
2019-01-09T07:01:11.542Z,99621.45
2019-01-09T07:03:44.900Z,99628.64
2019-01-09T07:06:18.895Z,99626.75
2019-01-09T07:08:53.678Z,99637.95
2019-01-09T07:11:27.148Z,99635.83
2019-01-09T07:14:01.124Z,99637.01
2019-01-09T07:16:34.746Z,99646.02
2019-01-09T07:19:07.746Z,99654.78
2019-01-09T07:21:45.591Z,99648.46
2019-01-09T07:24:16.379Z,99656.05
2019-01-09T07:26:51.731Z,99647.42
2019-01-09T07:29:25.111Z,99662.11
2019-01-09T07:31:58.548Z,99658.81
2019-01-09T07:34:32.442Z,99665.97
2019-01-09T07:37:05.427Z,99676.55
2019-01-09T07:39:39.097Z,99670.38
2019-01-09T07:42:13.548Z,99673.86
2019-01-09T07:44:47.045Z,99669.80
2019-01-09T07:47:20.337Z,99667.92
2019-01-09T07:49:53.429Z,99674.79
2019-01-09T07:52:26.518Z,99672.11
2019-01-09T07:54:59.519Z,99680.98
2019-01-09T07:57:31.815Z,99690.82
2019-01-09T08:00:06.444Z,99687.66
2019-01-09T08:02:39.488Z,99681.27
2019-01-09T08:05:12.219Z,99682.45
2019-01-09T08:07:53.552Z,99690.50
2019-01-09T08:10:18.976Z,99688.68
2019-01-09T08:12:52.370Z,99697.05
2019-01-09T08:15:26.090Z,99697.84
2019-01-09T08:17:59.776Z,99705.03
2019-01-09T08:20:32.403Z,99710.91
2019-01-09T08:23:06.008Z,99709.09
2019-01-09T08:25:40.871Z,99713.28
2019-01-09T08:28:13.560Z,99714.14
2019-01-09T08:30:47.401Z,99713.50
2019-01-09T08:33:21.237Z,99716.73
2019-01-09T08:35:54.589Z,99725.26
2019-01-09T08:38:27.594Z,99726.22
2019-01-09T08:41:01.084Z,99729.28
2019-01-09T08:43:34.208Z,99741.13
2019-01-09T08:46:07.798Z,99727.16
2019-01-09T08:48:41.495Z,99731.28
2019-01-09T08:51:14.448Z,99734.98
2019-01-09T08:53:47.823Z,99742.12
2019-01-09T08:56:21.335Z,99739.88
2019-01-09T08:58:54.729Z,99749.98
2019-01-09T09:01:28.235Z,99744.20
2019-01-09T09:04:01.745Z,99739.79
2019-01-09T09:06:34.320Z,99753.16
2019-01-09T09:09:08.014Z,99754.33
2019-01-09T09:11:41.601Z,99756.02
2019-01-09T09:14:15.041Z,99759.59
2019-01-09T09:16:48.235Z,99767.98
2019-01-09T09:19:21.981Z,99759.25
2019-01-09T09:21:55.227Z,99763.91
2019-01-09T09:24:28.149Z,99770.41
2019-01-09T09:27:01.083Z,99774.16
2019-01-09T09:29:34.823Z,99773.78
2019-01-09T09:32:07.625Z,99780.59
2019-01-09T09:34:40.975Z,99781.27
2019-01-09T09:37:15.910Z,99788.91
2019-01-09T09:39:49.230Z,99777.92
2019-01-09T09:42:22.512Z,99790.20
2019-01-09T09:44:55.874Z,99790.97
2019-01-09T09:47:29.287Z,99790.63
2019-01-09T09:50:02.704Z,99800.58
2019-01-09T09:52:36.162Z,99807.17
2019-01-09T09:55:13.015Z,99809.30
2019-01-09T09:57:44.526Z,99797.46
2019-01-09T10:00:19.115Z,99810.09
2019-01-09T10:02:52.152Z,99807.05
2019-01-09T10:05:25.500Z,99817.70
2019-01-09T10:07:59.292Z,99825.14
2019-01-09T10:10:33.845Z,99823.66
2019-01-09T10:13:06.456Z,99826.58
2019-01-09T10:15:39.538Z,99820.08
2019-01-09T10:18:12.913Z,99824.27
2019-01-09T10:20:46.217Z,99829.71
2019-01-09T10:23:19.967Z,99821.03
2019-01-09T10:25:52.993Z,99829.27
2019-01-09T10:28:26.657Z,99825.77
2019-01-09T10:31:00.742Z,99829.95
2019-01-09T10:33:33.998Z,99828.28
2019-01-09T10:36:06.996Z,99846.97
2019-01-09T10:38:39.793Z,99829.56
2019-01-09T10:41:12.454Z,99837.38
2019-01-09T10:43:45.665Z,99842.23
2019-01-09T10:46:18.769Z,99843.32
2019-01-09T10:48:51.854Z,99841.06
2019-01-09T10:51:25.302Z,99832.55
2019-01-09T10:54:00.645Z,99844.09
2019-01-09T10:56:34.389Z,99850.02
2019-01-09T10:59:07.394Z,99842.38
2019-01-09T11:01:40.473Z,99833.41
2019-01-09T11:04:13.062Z,99837.80
2019-01-09T11:06:46.770Z,99829.02
2019-01-09T11:09:20.601Z,99838.51
2019-01-09T11:11:53.644Z,99834.27
2019-01-09T11:14:27.025Z,99834.65
2019-01-09T11:17:00.129Z,99846.22
2019-01-09T11:19:33.848Z,99834.54
2019-01-09T11:22:06.821Z,99842.70
2019-01-09T11:24:39.819Z,99836.72
2019-01-09T11:27:12.787Z,99834.23
2019-01-09T11:29:46.053Z,99849.25
2019-01-09T11:32:19.493Z,99849.00
2019-01-09T11:34:54.684Z,99853.17
2019-01-09T11:37:28.498Z,99855.64
2019-01-09T11:40:01.855Z,99851.02
2019-01-09T11:42:35.295Z,99857.31
2019-01-09T11:45:10.154Z,99863.70
2019-01-09T11:47:43.764Z,99859.28
2019-01-09T11:50:17.806Z,99860.80
2019-01-09T11:52:51.388Z,99853.27
2019-01-09T11:55:24.807Z,99850.20
2019-01-09T11:57:57.788Z,99851.22
2019-01-09T12:00:31.881Z,99856.19
2019-01-09T12:03:05.449Z,99852.90
2019-01-09T12:05:38.502Z,99847.04
2019-01-09T12:08:11.649Z,99851.79
2019-01-09T12:10:45.217Z,99856.83
2019-01-09T12:13:18.949Z,99852.88
2019-01-09T12:15:51.949Z,99853.77
2019-01-09T12:18:25.407Z,99859.20
2019-01-09T12:20:58.076Z,99855.17
2019-01-09T12:23:31.470Z,99840.40
2019-01-09T12:26:04.813Z,99854.41
2019-01-09T12:28:38.348Z,99860.80
2019-01-09T12:31:11.428Z,99855.33
2019-01-09T12:33:44.107Z,99854.47
2019-01-09T12:36:16.672Z,99858.09
2019-01-09T12:38:50.071Z,99866.88
2019-01-09T12:41:23.140Z,99871.30
2019-01-09T12:43:56.625Z,99871.59
2019-01-09T12:46:30.069Z,99881.85
2019-01-09T12:49:03.155Z,99868.36
2019-01-09T12:51:36.243Z,99882.20
2019-01-09T12:54:10.886Z,99890.27
2019-01-09T12:56:44.182Z,99888.92
2019-01-09T12:59:21.831Z,99893.02
2019-01-09T13:01:51.851Z,99897.27
2019-01-09T13:04:25.538Z,99897.42
2019-01-09T13:06:58.753Z,99900.66
2019-01-09T13:09:32.632Z,99911.02
2019-01-09T13:12:05.658Z,99912.52
2019-01-09T13:14:38.974Z,99917.61
2019-01-09T13:17:12.663Z,99917.69
2019-01-09T13:19:45.249Z,99921.72
2019-01-09T13:22:18.753Z,99921.59
2019-01-09T13:24:51.661Z,99921.91
2019-01-09T13:27:24.384Z,99926.97
2019-01-09T13:29:57.702Z,99924.98
2019-01-09T13:32:30.708Z,99931.00
2019-01-09T13:35:03.821Z,99936.16
2019-01-09T13:37:37.747Z,99948.02
2019-01-09T13:40:13.329Z,99944.80
2019-01-09T13:42:46.795Z,99952.27
2019-01-09T13:45:20.538Z,99959.88
2019-01-09T13:47:54.059Z,99957.03
2019-01-09T13:50:27.357Z,99965.24
2019-01-09T13:53:01.454Z,99961.61
2019-01-09T13:55:34.432Z,99961.62
2019-01-09T13:58:07.337Z,99966.84
2019-01-09T14:00:39.957Z,99969.38
2019-01-09T14:03:13.399Z,99971.70
2019-01-09T14:05:46.712Z,99972.59
2019-01-09T14:08:19.787Z,99977.33
2019-01-09T14:10:52.811Z,99983.30
2019-01-09T14:13:25.873Z,99985.03
2019-01-09T14:15:59.303Z,99995.64
2019-01-09T14:18:33.808Z,99982.70
2019-01-09T14:21:06.432Z,99987.23
2019-01-09T14:23:40.451Z,99991.35
2019-01-09T14:26:13.959Z,99999.66
2019-01-09T14:28:47.404Z,99990.84
2019-01-09T14:31:20.817Z,99995.55
2019-01-09T14:33:53.766Z,100000.06
2019-01-09T14:36:27.005Z,99995.84
2019-01-09T14:39:00.460Z,100006.53
2019-01-09T14:41:34.196Z,100003.63
2019-01-09T14:44:07.152Z,100010.70
2019-01-09T14:46:39.835Z,100020.22
2019-01-09T14:49:13.027Z,100009.95
2019-01-09T14:51:46.034Z,100013.08
2019-01-09T14:54:19.144Z,100018.98
2019-01-09T14:56:52.523Z,100022.46
2019-01-09T14:59:25.682Z,100024.43
2019-01-09T15:01:58.991Z,100028.33
2019-01-09T15:04:32.772Z,100030.16
2019-01-09T15:07:07.576Z,100036.69
2019-01-09T15:09:40.518Z,100040.94
2019-01-09T15:12:13.935Z,100040.63
2019-01-09T15:14:47.618Z,100038.44
2019-01-09T15:17:21.041Z,100038.70
2019-01-09T15:19:55.946Z,100053.28
2019-01-09T15:22:29.469Z,100055.52
2019-01-09T15:25:02.640Z,100057.59
2019-01-09T15:27:36.636Z,100051.01
2019-01-09T15:30:22.576Z,100055.97
2019-01-09T15:32:56.195Z,100049.98
2019-01-09T15:35:29.525Z,100047.84
2019-01-09T15:38:03.465Z,100053.52
2019-01-09T15:40:36.941Z,100052.43
2019-01-09T15:43:09.722Z,100054.23
2019-01-09T15:45:43.132Z,100052.12
2019-01-09T15:48:16.647Z,100060.94
2019-01-09T15:50:49.830Z,100056.69
2019-01-09T15:53:23.027Z,100065.53
2019-01-09T15:55:56.507Z,100051.55
2019-01-09T15:58:29.768Z,100061.92
2019-01-09T16:01:03.088Z,100061.69
2019-01-09T16:03:36.681Z,100055.66
2019-01-09T16:06:10.220Z,100065.09
2019-01-09T16:08:42.503Z,100067.91
2019-01-09T16:11:15.891Z,100062.67
2019-01-09T16:13:48.975Z,100062.67
2019-01-09T16:16:22.293Z,100073.02
2019-01-09T16:18:55.351Z,100070.23
2019-01-09T16:21:28.846Z,100071.00
2019-01-09T16:24:02.491Z,100075.33
2019-01-09T16:26:36.311Z,100069.48
2019-01-09T16:29:09.510Z,100072.78
2019-01-09T16:31:42.756Z,100079.05
2019-01-09T16:34:16.248Z,100078.95
2019-01-09T16:36:49.330Z,100074.67
2019-01-09T16:39:30.781Z,100088.71
2019-01-09T16:41:58.581Z,100081.37
2019-01-09T16:44:32.471Z,100078.52
2019-01-09T16:47:05.421Z,100102.13
2019-01-09T16:49:38.978Z,100102.31
2019-01-09T16:52:13.006Z,100100.30
2019-01-09T16:54:45.562Z,100102.66
2019-01-09T16:57:19.052Z,100112.55
2019-01-09T16:59:52.374Z,100113.93
2019-01-09T17:02:30.917Z,100119.97
2019-01-09T17:05:04.628Z,100123.46
2019-01-09T17:07:38.184Z,100128.59
2019-01-09T17:10:12.119Z,100129.63
2019-01-09T17:12:45.935Z,100137.54
2019-01-09T17:15:19.228Z,100137.98
2019-01-09T17:17:51.886Z,100135.47
2019-01-09T17:20:24.865Z,100144.67
2019-01-09T17:22:57.889Z,100140.39
2019-01-09T17:25:31.363Z,100144.48
2019-01-09T17:28:04.950Z,100151.00
2019-01-09T17:30:38.730Z,100149.94
2019-01-09T17:33:11.341Z,100156.65
2019-01-09T17:35:44.420Z,100163.38
2019-01-09T17:38:17.514Z,100160.94
2019-01-09T17:40:51.155Z,100155.09
2019-01-09T17:43:24.714Z,100159.78
2019-01-09T17:45:57.961Z,100167.14
2019-01-09T17:48:31.933Z,100176.91
2019-01-09T17:51:04.834Z,100183.09
2019-01-09T17:53:38.317Z,100187.91
2019-01-09T17:56:12.005Z,100187.27
2019-01-09T17:58:46.640Z,100191.98
2019-01-09T18:01:20.043Z,100195.89
2019-01-09T18:03:54.251Z,100201.67
2019-01-09T18:06:28.494Z,100200.41
2019-01-09T18:09:01.879Z,100205.50
2019-01-09T18:11:36.833Z,100203.17
2019-01-09T18:14:10.346Z,100210.45
2019-01-09T18:16:43.321Z,100202.33
2019-01-09T18:19:16.469Z,100222.48
2019-01-09T18:21:48.620Z,100227.39
2019-01-09T18:24:22.082Z,100224.86
2019-01-09T18:26:55.590Z,100226.39
2019-01-09T18:29:28.644Z,100226.09
2019-01-09T18:32:36.871Z,100229.03
2019-01-09T18:35:23.999Z,100231.56
2019-01-09T18:38:16.277Z,100227.70
2019-01-09T18:41:32.444Z,100226.81
2019-01-09T18:44:49.953Z,100239.42
2019-01-09T18:47:47.579Z,100243.55
2019-01-09T18:51:00.764Z,100248.80
2019-01-09T18:53:58.939Z,100254.47
2019-01-09T18:56:34.728Z,100263.56
2019-01-09T18:59:08.292Z,100268.13
2019-01-09T19:01:41.368Z,100265.24
2019-01-09T19:04:14.565Z,100271.45
2019-01-09T19:06:48.546Z,100268.08
2019-01-09T19:09:21.788Z,100264.59
2019-01-09T19:11:54.954Z,100257.55
2019-01-09T19:14:27.644Z,100258.39
